Gillsburg, Mississippi
Current Conditions -  °F | °C
As of 12:53 AM on Saturday 29 Nov 2014 (Local Time) from KMCB Reporting Station
Haze Haze  
Wind Chill: 39°   Ceiling: Unl
Heat Index: 42°   Visibility: 6mi
Dew Point: 39°   Wind: 5mph
Humidity: 89%   Direction: 170°S
Pressure: 30.21"   Gusts: NA
Location:  31.0276°N, 90.4793°W
Report Text: KMCB 290653Z AUTO 17004KT 6SM BR CLR 06/04 A3021 RMK AO2 SLP227 T00560039
Loading
Personal Weather Stations






























Interactive Weather Map New forecast layout! Learn more

10-Day Weather Forecast

Advertisements
Track Severe Weather on mobile